Time;durP1;ratioP1;P1;durP2;ratioP2;P2;SDS_P1;SDS_P2;PMS_P1;PMS_P2;Temp;Humidity;BMP_temperature;BMP_pressure;BME280_temperature;BME280_humidity;BME280_pressure;Samples;Min_cycle;Max_cycle;Signal;HPM_P1;HPM_P2
2021/03/27 00:00:52;;;;;;;14.57;7.80;;;12.10;63.10;;;;;;5033896;28;20072;-68
2021/03/27 00:03:31;;;;;;;11.80;7.20;;;12.10;63.20;;;;;;5033003;28;20103;-68
2021/03/27 00:06:08;;;;;;;12.13;7.45;;;12.10;63.40;;;;;;5033739;28;20095;-68
2021/03/27 00:08:54;;;;;;;12.82;6.57;;;12.10;63.70;;;;;;5032781;28;20033;-69
2021/03/27 00:11:25;;;;;;;11.88;7.90;;;12.00;63.50;;;;;;5031174;28;20025;-69
2021/03/27 00:13:59;;;;;;;11.48;7.43;;;12.00;63.60;;;;;;5033298;28;20044;-68
2021/03/27 00:16:37;;;;;;;16.08;8.50;;;12.00;63.70;;;;;;5032892;28;20026;-69
2021/03/27 00:19:10;;;;;;;11.00;7.22;;;12.00;63.70;;;;;;5033485;28;20037;-69
2021/03/27 00:21:47;;;;;;;12.88;7.88;;;12.00;64.10;;;;;;5033212;28;20041;-69
2021/03/27 00:24:30;;;;;;;12.52;8.32;;;12.00;63.70;;;;;;5024784;28;20061;-69
2021/03/27 00:27:09;;;;;;;14.48;8.10;;;12.00;63.80;;;;;;5033205;28;20029;-69
2021/03/27 00:29:44;;;;;;;11.43;7.55;;;12.00;63.70;;;;;;5033338;28;20475;-69
2021/03/27 00:32:15;;;;;;;10.20;6.47;;;12.00;63.50;;;;;;5030927;28;20402;-69
2021/03/27 00:34:45;;;;;;;12.57;7.50;;;12.00;63.70;;;;;;5033719;28;20394;-69
2021/03/27 00:37:17;;;;;;;13.57;6.82;;;12.00;63.70;;;;;;5033054;28;20479;-69
2021/03/27 00:39:43;;;;;;;11.40;7.35;;;12.00;63.80;;;;;;5032474;28;20041;-69
2021/03/27 00:42:18;;;;;;;10.70;7.18;;;12.00;63.60;;;;;;5033082;28;20041;-69
2021/03/27 00:44:56;;;;;;;13.50;7.32;;;12.00;63.80;;;;;;5032873;28;20033;-69
2021/03/27 00:47:27;;;;;;;12.77;6.57;;;11.90;64.00;;;;;;5022110;28;20032;-69
2021/03/27 00:50:25;;;;;;;10.85;7.00;;;11.90;63.80;;;;;;5031642;28;20095;-68
2021/03/27 00:52:54;;;;;;;14.43;7.63;;;11.90;64.00;;;;;;5030320;28;20041;-69
2021/03/27 00:55:41;;;;;;;11.18;7.05;;;11.90;64.10;;;;;;5032414;28;20029;-69
2021/03/27 00:58:15;;;;;;;11.45;7.13;;;11.90;64.30;;;;;;5032612;28;20045;-69
2021/03/27 01:00:47;;;;;;;13.13;7.45;;;11.80;64.20;;;;;;5032470;28;20022;-69
2021/03/27 01:03:29;;;;;;;11.45;7.30;;;11.80;64.50;;;;;;5032615;28;20025;-69
2021/03/27 01:05:56;;;;;;;14.57;7.75;;;11.80;64.60;;;;;;5031310;28;20065;-69
2021/03/27 01:08:24;;;;;;;11.25;7.20;;;11.80;64.60;;;;;;5032373;28;20029;-69
2021/03/27 01:11:05;;;;;;;14.05;7.45;;;11.80;64.70;;;;;;5032192;28;20030;-69
2021/03/27 01:13:47;;;;;;;12.32;7.75;;;11.80;64.70;;;;;;5031878;28;20529;-69
2021/03/27 01:16:19;;;;;;;12.23;8.05;;;11.80;65.00;;;;;;5032998;28;20041;-67
2021/03/27 01:18:50;;;;;;;12.13;8.75;;;11.80;64.80;;;;;;5032811;28;20040;-69
2021/03/27 01:21:23;;;;;;;;;;;11.80;64.80;;;;;;5033353;28;20655;-69
2021/03/27 01:23:55;;;;;;;9.75;7.07;;;11.80;65.10;;;;;;5030262;28;19923;-69
2021/03/27 01:26:26;;;;;;;19.20;8.27;;;11.80;65.10;;;;;;5032160;28;20025;-69
2021/03/27 01:29:02;;;;;;;10.48;7.20;;;11.80;65.30;;;;;;5032742;28;20087;-69
2021/03/27 01:31:42;;;;;;;14.52;8.80;;;11.80;65.30;;;;;;5032673;28;20498;-69
2021/03/27 01:34:32;;;;;;;16.38;8.57;;;11.80;65.50;;;;;;5021468;28;20029;-69
2021/03/27 01:37:14;;;;;;;11.05;8.05;;;11.70;65.40;;;;;;5031599;28;20585;-69
2021/03/27 01:39:56;;;;;;;13.02;7.70;;;11.70;65.40;;;;;;5031393;28;20118;-69
2021/03/27 01:42:31;;;;;;;11.82;7.70;;;11.60;66.00;;;;;;5030855;28;20036;-69
2021/03/27 01:45:27;;;;;;;14.05;8.40;;;11.60;65.90;;;;;;5032140;28;20025;-69
2021/03/27 01:48:11;;;;;;;12.35;8.18;;;11.60;66.10;;;;;;5033515;28;20029;-69
2021/03/27 01:50:42;;;;;;;13.52;7.55;;;11.50;65.90;;;;;;5032278;28;20371;-69
2021/03/27 01:53:19;;;;;;;13.40;7.68;;;11.50;66.10;;;;;;5022577;28;20064;-69
2021/03/27 01:56:04;;;;;;;12.75;7.88;;;11.40;66.30;;;;;;5031620;28;20029;-69
2021/03/27 01:59:08;;;;;;;12.48;7.85;;;11.40;66.20;;;;;;5030977;28;20029;-69
2021/03/27 02:01:51;;;;;;;12.93;8.18;;;11.40;66.50;;;;;;4989751;28;20046;-69
2021/03/27 02:04:27;;;;;;;12.02;7.18;;;11.30;66.30;;;;;;5031818;28;20529;-68
2021/03/27 02:07:14;;;;;;;13.98;7.78;;;11.40;66.50;;;;;;5031749;28;20037;-69
2021/03/27 02:09:49;;;;;;;12.73;8.07;;;11.30;66.50;;;;;;5020811;28;20021;-69
2021/03/27 02:12:52;;;;;;;14.27;7.50;;;11.30;66.40;;;;;;5030842;28;20033;-69
2021/03/27 02:15:31;;;;;;;11.32;7.30;;;11.30;66.10;;;;;;5030992;28;20491;-69
2021/03/27 02:18:07;;;;;;;12.75;7.50;;;11.30;65.80;;;;;;5031155;28;20479;-69
2021/03/27 02:20:57;;;;;;;12.95;7.25;;;11.30;65.70;;;;;;5031395;28;20041;-69
2021/03/27 02:23:48;;;;;;;13.20;7.10;;;11.30;65.70;;;;;;5030920;28;20025;-69
2021/03/27 02:26:40;;;;;;;10.00;7.03;;;11.30;65.50;;;;;;5031031;28;20049;-69
2021/03/27 02:29:31;;;;;;;11.65;7.25;;;11.30;65.50;;;;;;5030475;28;20526;-69
2021/03/27 02:32:19;;;;;;;11.85;6.35;;;11.30;65.50;;;;;;5029866;28;20075;-69
2021/03/27 02:34:59;;;;;;;12.05;6.82;;;11.30;65.50;;;;;;5029522;28;20033;-69
2021/03/27 02:38:07;;;;;;;11.90;6.78;;;11.20;65.60;;;;;;5029734;28;20026;-69
2021/03/27 02:40:40;;;;;;;10.00;6.07;;;11.30;65.60;;;;;;4934399;28;20520;-69
2021/03/27 02:43:19;;;;;;;12.88;7.22;;;11.30;65.40;;;;;;5022877;28;20045;-69
2021/03/27 02:46:12;;;;;;;11.38;6.50;;;11.30;65.60;;;;;;5031365;28;20462;-69
2021/03/27 02:48:43;;;;;;;12.50;6.75;;;11.30;65.30;;;;;;5028930;28;20025;-69
2021/03/27 02:51:25;;;;;;;12.38;6.28;;;11.40;65.00;;;;;;5030988;28;20029;-69
2021/03/27 02:53:59;;;;;;;11.38;6.07;;;11.50;64.70;;;;;;5029292;28;20036;-69
2021/03/27 02:56:38;;;;;;;11.88;6.32;;;11.50;64.90;;;;;;5029233;28;20033;-69
2021/03/27 02:59:37;;;;;;;10.70;6.20;;;11.50;64.40;;;;;;5024812;28;20608;-69
2021/03/27 03:02:08;;;;;;;10.88;6.00;;;11.50;64.70;;;;;;5031266;28;20040;-69
2021/03/27 03:04:41;;;;;;;;;;;11.50;64.50;;;;;;5030836;28;20033;-69
2021/03/27 03:07:14;;;;;;;13.85;6.53;;;11.60;64.20;;;;;;5030420;28;20005;-69
2021/03/27 03:09:51;;;;;;;10.15;6.05;;;11.60;64.30;;;;;;5029417;28;20498;-69
2021/03/27 03:12:20;;;;;;;14.80;6.20;;;11.60;64.50;;;;;;5029001;28;20117;-69
2021/03/27 03:15:12;;;;;;;10.77;7.70;;;11.50;64.20;;;;;;5028908;28;20100;-69
2021/03/27 03:17:47;;;;;;;10.18;5.60;;;11.50;64.40;;;;;;5019131;28;20473;-69
2021/03/27 03:20:32;;;;;;;10.05;6.40;;;11.50;64.40;;;;;;5030130;28;20029;-69
2021/03/27 03:23:12;;;;;;;8.95;6.20;;;11.50;64.00;;;;;;5028304;28;20037;-69
2021/03/27 03:26:04;;;;;;;9.60;5.88;;;11.40;64.40;;;;;;5030345;28;20030;-69
2021/03/27 03:28:58;;;;;;;10.38;5.60;;;11.50;63.80;;;;;;4988958;28;20069;-69
2021/03/27 03:31:39;;;;;;;11.50;5.70;;;11.50;64.10;;;;;;5029706;28;20044;-69
2021/03/27 03:34:17;;;;;;;11.73;6.13;;;11.50;64.20;;;;;;5045569;23;20044;-74
2021/03/27 03:37:09;;;;;;;11.93;7.22;;;11.40;64.20;;;;;;5047241;28;20040;-74
2021/03/27 03:40:07;;;;;;;10.52;6.55;;;11.50;64.00;;;;;;5048491;28;20025;-74
2021/03/27 03:42:41;;;;;;;11.82;6.47;;;11.40;64.40;;;;;;5048936;28;20539;-73
2021/03/27 03:45:34;;;;;;;12.75;6.80;;;11.40;64.70;;;;;;5048011;28;20025;-74
2021/03/27 03:48:13;;;;;;;10.63;5.22;;;11.40;64.50;;;;;;5048968;28;20021;-74
2021/03/27 03:50:51;;;;;;;8.98;5.88;;;11.40;64.60;;;;;;5049150;28;20031;-74
2021/03/27 03:53:35;;;;;;;10.57;6.53;;;11.40;64.60;;;;;;5048755;28;20035;-74
2021/03/27 03:56:26;;;;;;;11.00;5.93;;;11.40;64.90;;;;;;5030325;28;20033;-73
2021/03/27 03:59:10;;;;;;;11.82;6.57;;;11.40;65.90;;;;;;5046105;28;20029;-74
2021/03/27 04:01:46;;;;;;;12.15;7.13;;;11.50;67.10;;;;;;5046811;28;20504;-75
2021/03/27 04:04:25;;;;;;;10.77;7.00;;;11.40;67.50;;;;;;5041885;28;20037;-73
2021/03/27 04:06:58;;;;;;;12.20;6.50;;;11.40;68.00;;;;;;5034537;28;20029;-74
2021/03/27 04:09:37;;;;;;;11.23;7.13;;;11.40;68.70;;;;;;5032860;28;20044;-73
2021/03/27 04:12:06;;;;;;;8.88;6.53;;;11.40;68.70;;;;;;5048994;28;20032;-73
2021/03/27 04:14:35;;;;;;;14.05;7.63;;;11.30;69.60;;;;;;5032531;28;20112;-73
2021/03/27 04:17:16;;;;;;;11.73;6.80;;;11.20;71.60;;;;;;5045868;28;20021;-74
2021/03/27 04:19:50;;;;;;;12.18;6.72;;;11.10;74.80;;;;;;5047963;28;20025;-74
2021/03/27 04:22:46;;;;;;;10.70;6.85;;;10.90;76.50;;;;;;5048836;28;20040;-73
2021/03/27 04:25:26;;;;;;;12.07;7.18;;;10.70;78.60;;;;;;5044433;28;20117;-74
2021/03/27 04:27:55;;;;;;;8.63;4.97;;;10.40;80.90;;;;;;5035968;28;20029;-73
2021/03/27 04:30:48;;;;;;;7.00;5.15;;;10.10;82.60;;;;;;5053702;28;20021;-74
2021/03/27 04:33:41;;;;;;;6.82;4.70;;;10.00;83.90;;;;;;5049151;28;20025;-73
2021/03/27 04:36:15;;;;;;;6.38;4.15;;;9.80;85.00;;;;;;5049977;28;20033;-75
2021/03/27 04:38:46;;;;;;;8.95;5.30;;;9.80;84.80;;;;;;5042939;28;20541;-75
2021/03/27 04:41:30;;;;;;;10.70;4.60;;;9.70;87.30;;;;;;5019137;28;20606;-75
2021/03/27 04:44:28;;;;;;;8.77;4.38;;;9.50;88.30;;;;;;5059060;28;20020;-74
2021/03/27 04:47:17;;;;;;;7.13;3.80;;;9.30;90.70;;;;;;5055114;28;20433;-74
2021/03/27 04:50:14;;;;;;;5.63;3.58;;;9.10;90.80;;;;;;5047074;28;20017;-75
2021/03/27 04:53:01;;;;;;;7.32;3.40;;;9.00;91.00;;;;;;5041234;28;20021;-75
2021/03/27 04:55:54;;;;;;;5.28;3.38;;;8.90;92.20;;;;;;5053730;28;20449;-75
2021/03/27 04:58:33;;;;;;;5.35;3.53;;;8.70;91.50;;;;;;5029721;28;20084;-74
2021/03/27 05:01:12;;;;;;;5.65;3.25;;;8.60;92.50;;;;;;5042758;28;20061;-74
2021/03/27 05:04:04;;;;;;;5.10;2.97;;;8.50;93.40;;;;;;5051821;28;20025;-74
2021/03/27 05:06:39;;;;;;;;;;;8.30;92.90;;;;;;5055739;28;20100;-74
2021/03/27 05:09:29;;;;;;;4.35;2.55;;;8.30;93.90;;;;;;5062945;28;19917;-75
2021/03/27 05:12:17;;;;;;;3.70;2.08;;;8.10;93.60;;;;;;5037463;28;20495;-74
2021/03/27 05:15:06;;;;;;;5.68;2.70;;;8.00;93.80;;;;;;5036647;28;20041;-74
2021/03/27 05:17:44;;;;;;;3.63;2.08;;;7.90;93.50;;;;;;5052853;28;20060;-74
2021/03/27 05:20:19;;;;;;;4.07;2.40;;;7.70;94.50;;;;;;5058415;28;20501;-74
2021/03/27 05:23:09;;;;;;;5.05;2.00;;;7.80;95.80;;;;;;5032977;28;20120;-75
2021/03/27 05:25:44;;;;;;;3.33;1.60;;;7.70;94.80;;;;;;5038754;28;20033;-75
2021/03/27 05:28:35;;;;;;;3.75;2.20;;;7.50;94.60;;;;;;5048677;28;20104;-74
2021/03/27 05:31:31;;;;;;;5.82;2.70;;;7.50;94.80;;;;;;5054820;28;20083;-75
2021/03/27 05:34:28;;;;;;;3.78;2.50;;;7.40;95.10;;;;;;5060335;28;20041;-74
2021/03/27 05:37:18;;;;;;;3.85;2.50;;;7.40;95.30;;;;;;5050507;28;20112;-75
2021/03/27 05:40:09;;;;;;;5.80;3.40;;;7.40;95.70;;;;;;5057465;28;20032;-75
2021/03/27 05:43:08;;;;;;;6.68;3.25;;;7.40;95.80;;;;;;5047790;28;20346;-75
2021/03/27 05:46:07;;;;;;;4.03;2.30;;;7.40;95.80;;;;;;5039388;28;20033;-76
2021/03/27 05:48:33;;;;;;;5.13;3.10;;;7.30;95.30;;;;;;5058599;28;20039;-75
2021/03/27 05:51:37;;;;;;;5.28;2.97;;;7.30;95.70;;;;;;5061814;28;20025;-75
2021/03/27 05:54:11;;;;;;;4.53;2.78;;;7.30;95.90;;;;;;5062020;28;20051;-75
2021/03/27 05:56:48;;;;;;;5.60;2.90;;;7.30;96.00;;;;;;5040809;28;20025;-75
2021/03/27 05:59:42;;;;;;;4.63;2.70;;;7.40;96.00;;;;;;5056021;28;20028;-75
2021/03/27 06:02:16;;;;;;;4.80;3.00;;;7.30;95.50;;;;;;5047487;28;20029;-75
2021/03/27 06:05:14;;;;;;;4.70;3.05;;;7.30;95.50;;;;;;5036353;28;20057;-76
2021/03/27 06:08:08;;;;;;;4.13;2.80;;;7.30;95.70;;;;;;5029971;28;20071;-75
2021/03/27 06:10:46;;;;;;;4.63;3.38;;;7.20;95.30;;;;;;5042734;28;20486;-75
2021/03/27 06:13:37;;;;;;;5.03;3.30;;;7.20;95.10;;;;;;5040062;28;20032;-75
2021/03/27 06:16:34;;;;;;;6.80;3.58;;;7.20;95.80;;;;;;5041483;28;20033;-75
2021/03/27 06:19:12;;;;;;;5.50;3.67;;;7.20;95.30;;;;;;5053412;28;20021;-75
2021/03/27 06:22:11;;;;;;;5.13;3.38;;;7.10;95.40;;;;;;5052422;28;20032;-75
2021/03/27 06:25:08;;;;;;;5.53;3.80;;;7.10;95.50;;;;;;5049888;28;20029;-74
2021/03/27 06:28:02;;;;;;;5.85;3.28;;;7.20;95.70;;;;;;5037107;28;20056;-75
2021/03/27 06:30:49;;;;;;;5.97;3.65;;;7.10;94.80;;;;;;5050419;28;20386;-76
2021/03/27 06:33:45;;;;;;;5.78;3.38;;;7.10;95.60;;;;;;5042603;28;20028;-75
2021/03/27 06:36:36;;;;;;;5.03;3.42;;;7.20;95.90;;;;;;5052141;28;20029;-75
2021/03/27 06:39:32;;;;;;;6.15;4.07;;;7.10;95.70;;;;;;5049000;28;20454;-75
2021/03/27 06:42:34;;;;;;;8.50;4.32;;;7.20;95.90;;;;;;5051350;28;20096;-75
2021/03/27 06:45:18;;;;;;;6.53;4.32;;;7.30;96.00;;;;;;5050445;28;20056;-76
2021/03/27 06:48:23;;;;;;;8.23;4.07;;;7.30;95.90;;;;;;5047778;28;20036;-75
2021/03/27 06:51:29;;;;;;;6.95;4.95;;;7.30;95.80;;;;;;5046852;28;20041;-76
2021/03/27 06:54:19;;;;;;;6.63;4.32;;;7.20;95.20;;;;;;5025630;28;20055;-75
2021/03/27 06:57:04;;;;;;;8.18;4.07;;;7.30;95.30;;;;;;5051370;28;20108;-75
2021/03/27 07:00:11;;;;;;;7.18;5.25;;;7.30;95.20;;;;;;5043419;28;20033;-74
2021/03/27 07:03:11;;;;;;;6.85;5.15;;;7.30;95.80;;;;;;5063205;28;20107;-75
2021/03/27 07:05:56;;;;;;;8.77;5.15;;;7.20;95.10;;;;;;5055966;28;20111;-75
2021/03/27 07:08:52;;;;;;;10.00;5.80;;;7.20;95.60;;;;;;5045976;28;20032;-76
2021/03/27 07:11:39;;;;;;;9.57;5.22;;;7.20;96.10;;;;;;5040156;28;20033;-75
2021/03/27 07:14:23;;;;;;;11.77;6.10;;;7.20;95.50;;;;;;5045639;28;20045;-75
2021/03/27 07:17:22;;;;;;;12.32;6.50;;;7.20;95.60;;;;;;5050128;28;20029;-75
2021/03/27 07:20:13;;;;;;;10.15;6.47;;;7.20;96.20;;;;;;5046550;28;20139;-74
2021/03/27 07:22:45;;;;;;;;;;;7.20;96.00;;;;;;5050374;28;20052;-75
2021/03/27 07:25:16;;;;;;;;;;;7.20;95.00;;;;;;5048501;28;20019;-75
2021/03/27 07:27:48;;;;;;;;;;;7.20;95.00;;;;;;5053864;28;19905;-75
2021/03/27 07:30:45;;;;;;;11.63;5.82;;;7.20;95.80;;;;;;5062804;28;20277;-74
2021/03/27 07:33:29;;;;;;;7.22;3.65;;;7.20;95.00;;;;;;5028122;28;20049;-75
2021/03/27 07:36:20;;;;;;;6.43;3.33;;;7.00;94.50;;;;;;5046996;28;20065;-75
2021/03/27 07:39:18;;;;;;;;;;;6.90;95.90;;;;;;5065290;28;20046;-75
2021/03/27 07:42:15;;;;;;;3.30;2.22;;;6.80;95.80;;;;;;5047352;28;19974;-75
2021/03/27 07:45:05;;;;;;;6.50;3.40;;;6.70;94.50;;;;;;5044786;28;20037;-75
2021/03/27 07:47:52;;;;;;;3.97;2.85;;;6.60;95.00;;;;;;5038198;28;20021;-75
2021/03/27 07:50:26;;;;;;;6.43;3.33;;;6.60;95.30;;;;;;5044463;28;20021;-75
2021/03/27 07:53:12;;;;;;;8.70;3.40;;;6.50;95.30;;;;;;5055136;28;20123;-76
2021/03/27 07:56:09;;;;;;;5.60;2.90;;;6.50;96.10;;;;;;5032984;28;20076;-75
2021/03/27 07:58:59;;;;;;;6.50;3.15;;;6.60;94.70;;;;;;5058438;28;20029;-75
2021/03/27 08:01:57;;;;;;;7.97;3.97;;;6.60;94.30;;;;;;5060726;28;20062;-75
2021/03/27 08:05:12;;;;;;;7.47;3.63;;;6.50;95.70;;;;;;5035458;28;20548;-75
2021/03/27 08:08:14;;;;;;;9.45;4.07;;;6.60;95.20;;;;;;5042272;28;20017;-74
2021/03/27 08:10:58;;;;;;;7.57;3.72;;;6.70;95.20;;;;;;5056280;28;20344;-75
2021/03/27 08:13:46;;;;;;;7.05;4.30;;;6.70;95.80;;;;;;5051961;28;20040;-75
2021/03/27 08:16:37;;;;;;;7.93;4.95;;;6.80;96.00;;;;;;5047940;28;20029;-74
2021/03/27 08:19:16;;;;;;;8.48;5.07;;;6.80;96.30;;;;;;5048153;28;20109;-74
2021/03/27 08:21:59;;;;;;;6.10;4.22;;;6.80;95.90;;;;;;5046972;28;20060;-73
2021/03/27 08:24:54;;;;;;;10.25;4.97;;;6.80;95.20;;;;;;5054154;28;20110;-74
2021/03/27 08:27:20;;;;;;;9.68;5.30;;;6.80;95.90;;;;;;5024762;28;20026;-74
2021/03/27 08:30:10;;;;;;;12.13;5.95;;;6.80;95.90;;;;;;5035663;28;20155;-74
2021/03/27 08:33:00;;;;;;;11.68;6.68;;;6.90;96.00;;;;;;5053623;28;20029;-75
2021/03/27 08:35:38;;;;;;;13.77;7.03;;;6.90;96.00;;;;;;5046953;28;20045;-74
2021/03/27 08:38:38;;;;;;;12.95;6.97;;;7.00;96.40;;;;;;5050888;28;20316;-74
2021/03/27 08:41:28;;;;;;;13.60;7.15;;;7.10;96.30;;;;;;5057196;28;20040;-74
2021/03/27 08:44:03;;;;;;;13.55;7.20;;;7.20;96.10;;;;;;5060303;28;20159;-74
2021/03/27 08:46:50;;;;;;;15.70;7.43;;;7.30;96.40;;;;;;5056717;28;20021;-74
2021/03/27 08:49:35;;;;;;;13.02;7.20;;;7.40;96.00;;;;;;5053553;28;20363;-71
2021/03/27 08:52:05;;;;;;;15.82;8.32;;;7.40;95.60;;;;;;5049912;28;20486;-73
2021/03/27 08:54:33;;;;;;;14.82;8.20;;;7.40;95.80;;;;;;5047123;28;20157;-73
2021/03/27 08:57:32;;;;;;;14.60;8.20;;;7.50;95.80;;;;;;5050365;28;20025;-72
2021/03/27 08:59:58;;;;;;;19.33;8.30;;;7.50;95.30;;;;;;5050543;28;20134;-72
2021/03/27 09:02:29;;;;;;;20.73;8.15;;;7.50;95.10;;;;;;5031618;28;20550;-74
2021/03/27 09:04:57;;;;;;;13.40;6.65;;;7.60;95.10;;;;;;5050316;28;20028;-75
2021/03/27 09:07:26;;;;;;;16.33;6.38;;;7.70;93.10;;;;;;5050503;28;20048;-76
2021/03/27 09:10:21;;;;;;;14.15;5.82;;;7.60;91.90;;;;;;5051559;28;20029;-75
2021/03/27 09:13:19;;;;;;;17.65;6.03;;;7.60;90.90;;;;;;5030188;28;20044;-75
2021/03/27 09:16:04;;;;;;;14.68;6.28;;;7.60;93.00;;;;;;5047337;28;20029;-75
2021/03/27 09:19:03;;;;;;;11.48;5.72;;;7.70;93.00;;;;;;5043231;28;20029;-75
2021/03/27 09:22:18;;;;;;;14.02;6.07;;;7.90;92.00;;;;;;5030057;28;20108;-74
2021/03/27 09:25:01;;;;;;;15.68;5.40;;;7.90;92.70;;;;;;4954187;28;20050;-74
2021/03/27 09:27:48;;;;;;;12.30;5.75;;;7.90;92.40;;;;;;5054771;28;20035;-74
2021/03/27 09:30:45;;;;;;;16.27;6.32;;;7.90;92.70;;;;;;5053369;28;20028;-75
2021/03/27 09:33:47;;;;;;;9.13;5.13;;;8.00;93.00;;;;;;5039244;28;20028;-74
2021/03/27 09:36:47;;;;;;;10.73;5.80;;;8.00;93.10;;;;;;5035015;28;20037;-74
2021/03/27 09:39:28;;;;;;;9.75;4.75;;;8.10;93.00;;;;;;5045578;28;20057;-74
2021/03/27 09:42:36;;;;;;;8.63;4.07;;;8.20;91.40;;;;;;5038234;28;20044;-73
2021/03/27 09:45:25;;;;;;;14.63;5.10;;;8.20;90.70;;;;;;5048149;28;20033;-74
2021/03/27 09:48:10;;;;;;;11.32;4.53;;;8.10;91.90;;;;;;5052896;28;20403;-73
2021/03/27 09:51:17;;;;;;;8.52;3.83;;;8.20;90.70;;;;;;5039897;28;20078;-76
2021/03/27 09:53:52;;;;;;;9.23;4.57;;;8.30;87.60;;;;;;5042796;28;20216;-75
2021/03/27 09:56:25;;;;;;;10.55;5.07;;;8.30;90.90;;;;;;5051693;28;20025;-74
2021/03/27 09:59:16;;;;;;;8.95;4.65;;;8.40;91.90;;;;;;5055383;28;20475;-72
2021/03/27 10:01:54;;;;;;;7.50;3.85;;;8.30;91.90;;;;;;5044874;28;20052;-72
2021/03/27 10:04:20;;;;;;;8.98;4.47;;;8.30;88.40;;;;;;5045583;28;20059;-72
2021/03/27 10:07:24;;;;;;;10.30;4.88;;;8.20;91.50;;;;;;5057741;28;20029;-76
2021/03/27 10:10:02;;;;;;;9.43;4.78;;;8.10;91.80;;;;;;5008985;28;20107;-74
2021/03/27 10:12:35;;;;;;;11.38;5.05;;;7.90;91.80;;;;;;4997772;28;20030;-74
2021/03/27 10:15:36;;;;;;;10.13;4.10;;;7.80;91.80;;;;;;4998516;28;20133;-75
2021/03/27 10:18:11;;;;;;;6.07;3.30;;;7.50;93.30;;;;;;4985172;28;20121;-75
2021/03/27 10:21:39;;;;;;;6.00;3.20;;;7.20;93.60;;;;;;4976515;28;20041;-75
2021/03/27 10:24:13;;;;;;;5.68;3.28;;;6.90;93.90;;;;;;4945205;28;20054;-76
2021/03/27 10:27:10;;;;;;;8.88;3.50;;;6.70;94.90;;;;;;5000869;28;20037;-75
2021/03/27 10:29:47;;;;;;;7.72;4.07;;;6.70;95.80;;;;;;5000039;28;20038;-76
2021/03/27 10:32:45;;;;;;;7.88;3.47;;;6.80;96.10;;;;;;4989025;28;20085;-75
2021/03/27 10:35:20;;;;;;;7.63;3.88;;;6.90;96.30;;;;;;5003783;28;20065;-72
2021/03/27 10:38:08;;;;;;;7.35;4.10;;;7.00;96.40;;;;;;5008449;28;20046;-73
2021/03/27 10:40:45;;;;;;;8.15;4.30;;;7.10;96.00;;;;;;5022663;28;20045;-76
2021/03/27 10:43:31;;;;;;;8.32;4.28;;;7.20;95.50;;;;;;5052657;28;20475;-76
2021/03/27 10:46:15;;;;;;;10.20;4.13;;;7.10;95.60;;;;;;5061319;28;20029;-75
2021/03/27 10:48:41;;;;;;;6.82;3.35;;;7.10;94.60;;;;;;5050191;28;20434;-76
2021/03/27 10:51:19;;;;;;;7.57;4.22;;;7.00;95.40;;;;;;5051758;28;20032;-75
2021/03/27 10:54:00;;;;;;;11.30;4.30;;;7.00;95.80;;;;;;5048758;28;20459;-74
2021/03/27 10:56:32;;;;;;;8.73;3.95;;;7.10;95.50;;;;;;5045455;28;20079;-77
2021/03/27 10:59:16;;;;;;;6.15;3.55;;;7.30;95.50;;;;;;5055148;28;20124;-75
2021/03/27 11:02:31;;;;;;;7.45;3.60;;;7.30;95.30;;;;;;5045973;28;20032;-74
2021/03/27 11:05:26;;;;;;;5.82;2.75;;;7.50;94.80;;;;;;5014777;28;20029;-74
2021/03/27 11:08:17;;;;;;;4.50;2.97;;;7.70;93.50;;;;;;5053768;28;20102;-71
2021/03/27 11:11:12;;;;;;;6.90;2.90;;;7.90;94.10;;;;;;5040846;28;20449;-73
2021/03/27 11:14:17;;;;;;;7.28;3.00;;;8.10;93.30;;;;;;5055871;28;20025;-76
2021/03/27 11:17:02;;;;;;;5.63;2.88;;;8.10;93.20;;;;;;5021815;28;20546;-73
2021/03/27 11:19:59;;;;;;;4.07;1.58;;;8.00;91.80;;;;;;5038174;28;20088;-74
2021/03/27 11:22:55;;;;;;;3.60;1.50;;;8.00;92.20;;;;;;5052913;28;20033;-74
2021/03/27 11:25:42;;;;;;;4.43;1.60;;;8.10;91.20;;;;;;5043311;28;20032;-74
2021/03/27 11:28:12;;;;;;;4.28;1.80;;;8.00;91.60;;;;;;5053090;28;20390;-74
2021/03/27 11:30:48;;;;;;;5.85;1.73;;;8.00;92.30;;;;;;5023392;28;20044;-74
2021/03/27 11:33:37;;;;;;;4.95;1.92;;;8.20;90.90;;;;;;5049210;28;20035;-74
2021/03/27 11:36:10;;;;;;;11.00;1.80;;;8.40;90.10;;;;;;5020641;28;20029;-73
2021/03/27 11:38:45;;;;;;;3.70;1.85;;;8.50;91.00;;;;;;5052541;28;20033;-73
2021/03/27 11:41:33;;;;;;;7.47;2.22;;;8.50;91.70;;;;;;5054099;28;20414;-72
2021/03/27 11:44:19;;;;;;;7.75;2.55;;;8.60;91.20;;;;;;5039548;28;20025;-74
2021/03/27 11:47:10;;;;;;;5.68;2.35;;;8.60;90.20;;;;;;5043940;28;20025;-73
2021/03/27 11:49:47;;;;;;;6.70;2.38;;;8.60;90.90;;;;;;5041042;28;20432;-75
2021/03/27 11:52:44;;;;;;;4.28;2.17;;;8.40;91.00;;;;;;5054006;28;20490;-74
2021/03/27 11:55:34;;;;;;;8.95;2.53;;;8.30;86.40;;;;;;5014988;28;20041;-71
2021/03/27 11:58:12;;;;;;;8.75;2.78;;;8.20;91.60;;;;;;5051117;28;20025;-72
2021/03/27 12:01:02;;;;;;;6.00;1.90;;;8.10;91.40;;;;;;5053987;28;20029;-72
2021/03/27 12:03:38;;;;;;;11.70;2.17;;;7.80;84.90;;;;;;5054664;28;20112;-71
2021/03/27 12:06:13;;;;;;;9.25;1.95;;;7.40;88.20;;;;;;5049344;28;20040;-72
2021/03/27 12:09:01;;;;;;;4.80;1.00;;;7.30;87.20;;;;;;5051192;28;20055;-70
2021/03/27 12:11:51;;;;;;;7.97;2.67;;;7.10;89.30;;;;;;5052625;28;20017;-74
2021/03/27 12:14:42;;;;;;;6.40;1.58;;;6.90;89.30;;;;;;5055154;28;20123;-74
2021/03/27 12:17:41;;;;;;;14.10;1.80;;;6.90;90.60;;;;;;5043682;28;20079;-74
2021/03/27 12:20:27;;;;;;;5.80;1.30;;;6.80;90.60;;;;;;5049958;28;20033;-73
2021/03/27 12:23:21;;;;;;;4.55;1.05;;;6.80;87.00;;;;;;5027964;28;20030;-74
2021/03/27 12:25:56;;;;;;;8.73;1.30;;;6.70;83.50;;;;;;5052476;28;20025;-72
2021/03/27 12:28:35;;;;;;;4.22;1.08;;;6.60;87.50;;;;;;5048798;28;20029;-71
2021/03/27 12:31:16;;;;;;;6.45;1.65;;;6.70;87.70;;;;;;5036259;28;20029;-72
2021/03/27 12:34:00;;;;;;;9.40;1.63;;;6.70;89.00;;;;;;5054154;28;20110;-73
2021/03/27 12:36:38;;;;;;;9.25;1.60;;;6.70;90.20;;;;;;5027507;28;20539;-72
2021/03/27 12:39:07;;;;;;;12.75;1.90;;;6.70;90.70;;;;;;5058945;28;20058;-72
2021/03/27 12:41:57;;;;;;;11.20;1.90;;;6.70;91.40;;;;;;5059095;28;20017;-72
2021/03/27 12:45:07;;;;;;;11.40;1.85;;;6.80;91.30;;;;;;5040453;28;20040;-72
2021/03/27 12:47:36;;;;;;;9.93;1.85;;;6.80;90.60;;;;;;5055188;28;20029;-72
2021/03/27 12:50:39;;;;;;;11.30;2.85;;;7.00;90.70;;;;;;5046186;28;20029;-73
2021/03/27 12:53:39;;;;;;;12.52;2.40;;;7.10;91.50;;;;;;5052405;28;20021;-71
2021/03/27 12:56:30;;;;;;;10.65;2.33;;;7.30;91.30;;;;;;5053600;28;20060;-75
2021/03/27 12:59:11;;;;;;;12.90;2.90;;;7.60;88.00;;;;;;5051680;28;20497;-73
2021/03/27 13:01:42;;;;;;;15.48;2.78;;;7.70;90.30;;;;;;5056724;28;20048;-74
2021/03/27 13:04:37;;;;;;;18.80;3.33;;;7.90;90.10;;;;;;5051273;28;20037;-73
2021/03/27 13:07:13;;;;;;;18.10;2.92;;;7.90;91.00;;;;;;5048463;28;20021;-73
2021/03/27 13:09:54;;;;;;;14.35;3.53;;;7.90;91.00;;;;;;5052386;28;20025;-74
2021/03/27 13:12:32;;;;;;;11.30;2.92;;;8.00;90.60;;;;;;5034843;28;20575;-73
2021/03/27 13:15:26;;;;;;;17.85;3.17;;;8.00;87.60;;;;;;5053754;28;20127;-73
2021/03/27 13:17:58;;;;;;;21.13;4.60;;;7.90;89.50;;;;;;5049009;28;20036;-73
2021/03/27 13:20:27;;;;;;;14.13;3.10;;;8.00;87.40;;;;;;5036268;28;20024;-74
2021/03/27 13:23:03;;;;;;;10.95;3.33;;;7.80;90.70;;;;;;5053240;28;20025;-73
2021/03/27 13:25:36;;;;;;;11.70;2.70;;;7.80;90.70;;;;;;5046806;28;20094;-74
2021/03/27 13:28:11;;;;;;;12.30;2.78;;;7.80;90.80;;;;;;5046005;28;20021;-74
2021/03/27 13:30:45;;;;;;;13.25;3.30;;;7.80;90.70;;;;;;5056462;28;20061;-72
2021/03/27 13:33:22;;;;;;;15.32;3.17;;;7.90;90.20;;;;;;5033153;28;20059;-73
2021/03/27 13:35:51;;;;;;;10.25;2.50;;;7.90;90.70;;;;;;5052296;28;20043;-76
2021/03/27 13:38:32;;;;;;;16.95;3.13;;;8.00;89.50;;;;;;5034710;28;20104;-73
2021/03/27 13:41:07;;;;;;;12.35;3.13;;;8.00;91.10;;;;;;5034296;28;20395;-74
2021/03/27 13:44:10;;;;;;;17.00;3.38;;;8.10;89.60;;;;;;5051586;28;20037;-74
2021/03/27 13:46:57;;;;;;;14.93;3.75;;;8.10;90.00;;;;;;5050352;28;20017;-73
2021/03/27 13:49:43;;;;;;;12.50;2.80;;;8.20;89.30;;;;;;5033190;28;20040;-73
2021/03/27 13:52:22;;;;;;;16.05;3.05;;;8.20;88.10;;;;;;5049711;28;20176;-73
2021/03/27 13:55:33;;;;;;;9.32;2.47;;;8.10;86.90;;;;;;5055645;28;20048;-74
2021/03/27 13:58:48;;;;;;;21.77;3.78;;;8.20;82.70;;;;;;5032477;28;20048;-73
2021/03/27 14:01:21;;;;;;;16.05;3.58;;;8.30;86.20;;;;;;5051781;28;20035;-73
2021/03/27 14:03:50;;;;;;;17.25;3.60;;;8.50;82.40;;;;;;5045921;28;20481;-73
2021/03/27 14:06:58;;;;;;;10.07;2.83;;;8.60;77.90;;;;;;5033363;28;20728;-73
2021/03/27 14:10:10;;;;;;;10.98;2.85;;;8.70;81.60;;;;;;5053134;28;20490;-75
2021/03/27 14:13:38;;;;;;;13.60;3.25;;;8.70;82.10;;;;;;5032774;28;20402;-75
2021/03/27 14:16:52;;;;;;;19.08;3.72;;;8.60;79.10;;;;;;5048005;28;20104;-74
2021/03/27 14:19:53;;;;;;;9.88;2.97;;;8.50;78.30;;;;;;5051592;28;20021;-72
2021/03/27 14:23:01;;;;;;;13.68;3.13;;;8.40;79.90;;;;;;5050393;28;20033;-74